sensor_id;sensor_type;location;lat;lon;timestamp;pressure;altitude;pressure_sealevel;temperature;humidity
18500;BME280;9379;52.134;11.576;2023-05-10T00:00:33;100277.06;;;17.38;58.03
18500;BME280;9379;52.134;11.576;2023-05-10T00:03:00;100278.56;;;17.26;57.95
18500;BME280;9379;52.134;11.576;2023-05-10T00:05:26;100269.84;;;17.09;58.46
18500;BME280;9379;52.134;11.576;2023-05-10T00:07:53;100271.13;;;17.42;57.69
18500;BME280;9379;52.134;11.576;2023-05-10T00:10:20;100271.88;;;17.07;59.28
18500;BME280;9379;52.134;11.576;2023-05-10T00:12:47;100274.47;;;17.00;59.77
18500;BME280;9379;52.134;11.576;2023-05-10T00:15:15;100269.75;;;17.17;58.90
18500;BME280;9379;52.134;11.576;2023-05-10T00:17:42;100265.13;;;17.11;58.92
18500;BME280;9379;52.134;11.576;2023-05-10T00:20:10;100263.16;;;17.34;58.82
18500;BME280;9379;52.134;11.576;2023-05-10T00:22:37;100262.06;;;16.99;59.44
18500;BME280;9379;52.134;11.576;2023-05-10T00:25:05;100250.78;;;17.18;58.76
18500;BME280;9379;52.134;11.576;2023-05-10T00:27:31;100251.22;;;17.22;58.71
18500;BME280;9379;52.134;11.576;2023-05-10T00:29:58;100250.19;;;17.23;59.10
18500;BME280;9379;52.134;11.576;2023-05-10T00:32:26;100251.03;;;17.24;58.60
18500;BME280;9379;52.134;11.576;2023-05-10T00:34:53;100240.75;;;17.12;59.06
18500;BME280;9379;52.134;11.576;2023-05-10T00:37:20;100247.81;;;16.84;60.33
18500;BME280;9379;52.134;11.576;2023-05-10T00:39:46;100235.22;;;16.84;60.08
18500;BME280;9379;52.134;11.576;2023-05-10T00:42:13;100241.13;;;17.09;59.22
18500;BME280;9379;52.134;11.576;2023-05-10T00:44:40;100242.06;;;16.72;60.13
18500;BME280;9379;52.134;11.576;2023-05-10T00:47:07;100249.56;;;17.06;59.20
18500;BME280;9379;52.134;11.576;2023-05-10T00:49:36;100237.50;;;16.58;60.71
18500;BME280;9379;52.134;11.576;2023-05-10T00:52:03;100241.66;;;16.60;60.56
18500;BME280;9379;52.134;11.576;2023-05-10T00:54:30;100234.00;;;16.87;60.13
18500;BME280;9379;52.134;11.576;2023-05-10T00:56:57;100240.03;;;17.18;59.19
18500;BME280;9379;52.134;11.576;2023-05-10T00:59:24;100232.44;;;17.07;59.26
18500;BME280;9379;52.134;11.576;2023-05-10T01:01:51;100222.09;;;17.04;59.65
18500;BME280;9379;52.134;11.576;2023-05-10T01:04:18;100233.75;;;16.82;60.17
18500;BME280;9379;52.134;11.576;2023-05-10T01:06:52;100235.16;;;16.92;60.24
18500;BME280;9379;52.134;11.576;2023-05-10T01:09:19;100229.84;;;16.84;60.62
18500;BME280;9379;52.134;11.576;2023-05-10T01:11:47;100229.22;;;16.97;59.79
18500;BME280;9379;52.134;11.576;2023-05-10T01:14:14;100223.25;;;17.02;59.29
18500;BME280;9379;52.134;11.576;2023-05-10T01:16:44;100235.19;;;16.32;62.13
18500;BME280;9379;52.134;11.576;2023-05-10T01:19:18;100226.19;;;16.62;61.27
18500;BME280;9379;52.134;11.576;2023-05-10T01:21:49;100226.13;;;17.00;60.30
18500;BME280;9379;52.134;11.576;2023-05-10T01:24:39;100230.31;;;16.88;60.30
18500;BME280;9379;52.134;11.576;2023-05-10T01:27:37;100226.53;;;16.97;59.99
18500;BME280;9379;52.134;11.576;2023-05-10T01:30:16;100229.44;;;16.58;60.82
18500;BME280;9379;52.134;11.576;2023-05-10T01:32:55;100221.28;;;16.66;60.71
18500;BME280;9379;52.134;11.576;2023-05-10T01:35:30;100224.28;;;16.56;61.59
18500;BME280;9379;52.134;11.576;2023-05-10T01:38:05;100227.94;;;16.55;61.64
18500;BME280;9379;52.134;11.576;2023-05-10T01:40:39;100226.06;;;16.41;62.21
18500;BME280;9379;52.134;11.576;2023-05-10T01:43:16;100215.91;;;16.51;61.72
18500;BME280;9379;52.134;11.576;2023-05-10T01:45:49;100222.13;;;16.14;62.88
18500;BME280;9379;52.134;11.576;2023-05-10T01:48:19;100219.91;;;16.18;63.06
18500;BME280;9379;52.134;11.576;2023-05-10T01:50:48;100213.75;;;16.32;62.04
18500;BME280;9379;52.134;11.576;2023-05-10T01:53:18;100217.72;;;16.21;62.99
18500;BME280;9379;52.134;11.576;2023-05-10T01:55:48;100218.13;;;16.33;61.88
18500;BME280;9379;52.134;11.576;2023-05-10T01:58:20;100220.53;;;15.82;63.17
18500;BME280;9379;52.134;11.576;2023-05-10T02:00:49;100214.47;;;16.11;62.70
18500;BME280;9379;52.134;11.576;2023-05-10T02:03:20;100207.91;;;16.14;62.71
18500;BME280;9379;52.134;11.576;2023-05-10T02:05:48;100224.75;;;16.22;62.86
18500;BME280;9379;52.134;11.576;2023-05-10T02:08:17;100215.88;;;16.22;63.01
18500;BME280;9379;52.134;11.576;2023-05-10T02:10:45;100211.47;;;16.06;62.61
18500;BME280;9379;52.134;11.576;2023-05-10T02:13:14;100218.09;;;15.95;63.39
18500;BME280;9379;52.134;11.576;2023-05-10T02:15:42;100219.88;;;16.03;63.15
18500;BME280;9379;52.134;11.576;2023-05-10T02:18:10;100212.03;;;16.39;62.21
18500;BME280;9379;52.134;11.576;2023-05-10T02:20:39;100218.31;;;16.09;62.87
18500;BME280;9379;52.134;11.576;2023-05-10T02:23:07;100219.00;;;15.88;63.43
18500;BME280;9379;52.134;11.576;2023-05-10T02:25:35;100213.97;;;15.85;63.93
18500;BME280;9379;52.134;11.576;2023-05-10T02:28:05;100211.06;;;16.32;62.44
18500;BME280;9379;52.134;11.576;2023-05-10T02:30:33;100216.78;;;15.91;64.25
18500;BME280;9379;52.134;11.576;2023-05-10T02:33:01;100212.53;;;16.20;63.00
18500;BME280;9379;52.134;11.576;2023-05-10T02:35:28;100207.75;;;16.30;62.82
18500;BME280;9379;52.134;11.576;2023-05-10T02:37:58;100210.53;;;16.22;62.84
18500;BME280;9379;52.134;11.576;2023-05-10T02:40:26;100197.31;;;16.35;62.15
18500;BME280;9379;52.134;11.576;2023-05-10T02:42:56;100204.81;;;16.02;64.12
18500;BME280;9379;52.134;11.576;2023-05-10T02:45:27;100207.84;;;16.22;63.38
18500;BME280;9379;52.134;11.576;2023-05-10T02:47:54;100199.91;;;16.05;63.55
18500;BME280;9379;52.134;11.576;2023-05-10T02:50:22;100206.25;;;15.67;64.93
18500;BME280;9379;52.134;11.576;2023-05-10T02:52:52;100200.38;;;16.09;63.54
18500;BME280;9379;52.134;11.576;2023-05-10T02:55:25;100200.78;;;15.83;65.15
18500;BME280;9379;52.134;11.576;2023-05-10T02:58:00;100206.28;;;16.04;64.39
18500;BME280;9379;52.134;11.576;2023-05-10T03:00:27;100196.28;;;16.21;63.30
18500;BME280;9379;52.134;11.576;2023-05-10T03:02:54;100194.38;;;16.07;64.44
18500;BME280;9379;52.134;11.576;2023-05-10T03:05:21;100199.22;;;16.12;63.46
18500;BME280;9379;52.134;11.576;2023-05-10T03:07:48;100207.53;;;16.17;63.43
18500;BME280;9379;52.134;11.576;2023-05-10T03:10:15;100204.91;;;16.09;64.19
18500;BME280;9379;52.134;11.576;2023-05-10T03:12:52;100207.19;;;15.74;65.60
18500;BME280;9379;52.134;11.576;2023-05-10T03:15:30;100207.28;;;15.66;65.70
18500;BME280;9379;52.134;11.576;2023-05-10T03:18:03;100201.25;;;15.87;64.81
18500;BME280;9379;52.134;11.576;2023-05-10T03:20:40;100200.81;;;16.21;64.05
18500;BME280;9379;52.134;11.576;2023-05-10T03:23:12;100202.50;;;15.99;64.25
18500;BME280;9379;52.134;11.576;2023-05-10T03:25:40;100203.25;;;15.62;65.41
18500;BME280;9379;52.134;11.576;2023-05-10T03:28:11;100204.94;;;15.63;65.85
18500;BME280;9379;52.134;11.576;2023-05-10T03:30:38;100202.94;;;15.65;65.68
18500;BME280;9379;52.134;11.576;2023-05-10T03:33:06;100207.78;;;15.61;65.53
18500;BME280;9379;52.134;11.576;2023-05-10T03:35:33;100204.19;;;15.77;65.39
18500;BME280;9379;52.134;11.576;2023-05-10T03:38:00;100212.09;;;15.70;64.91
18500;BME280;9379;52.134;11.576;2023-05-10T03:40:27;100209.13;;;15.65;65.38
18500;BME280;9379;52.134;11.576;2023-05-10T03:42:56;100210.78;;;15.66;65.60
18500;BME280;9379;52.134;11.576;2023-05-10T03:45:25;100210.56;;;15.76;64.94
18500;BME280;9379;52.134;11.576;2023-05-10T03:47:51;100206.03;;;15.77;64.62
18500;BME280;9379;52.134;11.576;2023-05-10T03:50:19;100212.03;;;16.01;64.31
18500;BME280;9379;52.134;11.576;2023-05-10T03:52:46;100207.38;;;15.95;64.20
18500;BME280;9379;52.134;11.576;2023-05-10T03:55:12;100202.44;;;15.84;64.69
18500;BME280;9379;52.134;11.576;2023-05-10T03:57:39;100211.66;;;15.51;66.09
18500;BME280;9379;52.134;11.576;2023-05-10T04:00:06;100202.59;;;15.60;66.18
18500;BME280;9379;52.134;11.576;2023-05-10T04:02:35;100208.72;;;15.77;65.87
18500;BME280;9379;52.134;11.576;2023-05-10T04:05:01;100200.44;;;15.86;65.13
18500;BME280;9379;52.134;11.576;2023-05-10T04:07:28;100207.59;;;16.09;64.99
18500;BME280;9379;52.134;11.576;2023-05-10T04:09:55;100198.72;;;16.08;64.28
18500;BME280;9379;52.134;11.576;2023-05-10T04:12:22;100199.88;;;15.68;65.25
18500;BME280;9379;52.134;11.576;2023-05-10T04:14:49;100202.09;;;15.64;65.44
18500;BME280;9379;52.134;11.576;2023-05-10T04:17:17;100202.28;;;15.63;65.29
18500;BME280;9379;52.134;11.576;2023-05-10T04:19:46;100208.66;;;15.54;66.66
18500;BME280;9379;52.134;11.576;2023-05-10T04:22:13;100194.47;;;15.76;65.84
18500;BME280;9379;52.134;11.576;2023-05-10T04:24:40;100206.91;;;15.69;66.35
18500;BME280;9379;52.134;11.576;2023-05-10T04:27:06;100203.69;;;15.96;65.12
18500;BME280;9379;52.134;11.576;2023-05-10T04:29:33;100201.59;;;16.07;64.92
18500;BME280;9379;52.134;11.576;2023-05-10T04:32:00;100195.97;;;15.79;65.64
18500;BME280;9379;52.134;11.576;2023-05-10T04:34:27;100192.25;;;16.02;64.93
18500;BME280;9379;52.134;11.576;2023-05-10T04:36:56;100188.50;;;15.89;65.29
18500;BME280;9379;52.134;11.576;2023-05-10T04:39:22;100178.50;;;15.83;65.61
18500;BME280;9379;52.134;11.576;2023-05-10T04:41:49;100182.06;;;15.98;66.08
18500;BME280;9379;52.134;11.576;2023-05-10T04:44:16;100187.44;;;15.98;66.06
18500;BME280;9379;52.134;11.576;2023-05-10T04:46:42;100178.88;;;16.17;65.02
18500;BME280;9379;52.134;11.576;2023-05-10T04:49:09;100183.22;;;15.81;66.34
18500;BME280;9379;52.134;11.576;2023-05-10T04:51:36;100185.72;;;16.20;64.87
18500;BME280;9379;52.134;11.576;2023-05-10T04:54:04;100199.47;;;15.79;65.95
18500;BME280;9379;52.134;11.576;2023-05-10T04:56:31;100190.59;;;15.79;66.19
18500;BME280;9379;52.134;11.576;2023-05-10T04:58:58;100189.50;;;16.11;65.74
18500;BME280;9379;52.134;11.576;2023-05-10T05:01:24;100188.53;;;16.03;65.53
18500;BME280;9379;52.134;11.576;2023-05-10T05:03:51;100196.75;;;15.87;65.87
18500;BME280;9379;52.134;11.576;2023-05-10T05:06:18;100197.84;;;15.70;66.97
18500;BME280;9379;52.134;11.576;2023-05-10T05:08:46;100197.25;;;15.83;66.44
18500;BME280;9379;52.134;11.576;2023-05-10T05:11:16;100210.56;;;15.76;66.70
18500;BME280;9379;52.134;11.576;2023-05-10T05:13:42;100204.47;;;15.82;66.46
18500;BME280;9379;52.134;11.576;2023-05-10T05:16:09;100208.56;;;15.70;66.68
18500;BME280;9379;52.134;11.576;2023-05-10T05:18:36;100209.31;;;15.87;66.40
18500;BME280;9379;52.134;11.576;2023-05-10T05:21:03;100202.34;;;16.15;65.94
18500;BME280;9379;52.134;11.576;2023-05-10T05:23:30;100210.53;;;16.37;65.32
18500;BME280;9379;52.134;11.576;2023-05-10T05:25:57;100205.66;;;16.02;65.61
18500;BME280;9379;52.134;11.576;2023-05-10T05:28:25;100204.88;;;16.31;65.27
18500;BME280;9379;52.134;11.576;2023-05-10T05:30:52;100194.94;;;16.02;66.07
18500;BME280;9379;52.134;11.576;2023-05-10T05:33:18;100204.50;;;15.97;66.29
18500;BME280;9379;52.134;11.576;2023-05-10T05:35:45;100206.44;;;16.26;66.63
18500;BME280;9379;52.134;11.576;2023-05-10T05:38:15;100204.47;;;15.82;66.91
18500;BME280;9379;52.134;11.576;2023-05-10T05:40:42;100200.41;;;16.61;65.69
18500;BME280;9379;52.134;11.576;2023-05-10T05:43:10;100193.69;;;15.90;66.89
18500;BME280;9379;52.134;11.576;2023-05-10T05:45:38;100211.38;;;16.52;65.52
18500;BME280;9379;52.134;11.576;2023-05-10T05:48:05;100210.13;;;16.77;65.27
18500;BME280;9379;52.134;11.576;2023-05-10T05:50:32;100216.53;;;17.06;64.20
18500;BME280;9379;52.134;11.576;2023-05-10T05:52:58;100205.75;;;17.71;62.82
18500;BME280;9379;52.134;11.576;2023-05-10T05:55:25;100207.91;;;18.04;61.65
18500;BME280;9379;52.134;11.576;2023-05-10T05:57:52;100209.19;;;18.08;61.14
18500;BME280;9379;52.134;11.576;2023-05-10T06:00:19;100216.25;;;18.09;61.15
18500;BME280;9379;52.134;11.576;2023-05-10T06:02:47;100211.94;;;17.93;61.38
18500;BME280;9379;52.134;11.576;2023-05-10T06:05:14;100207.16;;;17.16;64.19
18500;BME280;9379;52.134;11.576;2023-05-10T06:07:41;100212.47;;;17.67;64.67
18500;BME280;9379;52.134;11.576;2023-05-10T06:10:08;100212.50;;;17.31;63.78
18500;BME280;9379;52.134;11.576;2023-05-10T06:12:35;100211.09;;;17.35;63.93
18500;BME280;9379;52.134;11.576;2023-05-10T06:15:02;100212.19;;;16.23;66.74
18500;BME280;9379;52.134;11.576;2023-05-10T06:17:29;100215.06;;;16.21;66.84
18500;BME280;9379;52.134;11.576;2023-05-10T06:19:57;100217.28;;;16.85;66.69
18500;BME280;9379;52.134;11.576;2023-05-10T06:22:24;100217.16;;;17.08;66.12
18500;BME280;9379;52.134;11.576;2023-05-10T06:24:51;100217.47;;;16.83;66.78
18500;BME280;9379;52.134;11.576;2023-05-10T06:27:17;100222.56;;;16.93;66.59
18500;BME280;9379;52.134;11.576;2023-05-10T06:29:44;100215.03;;;16.74;67.36
18500;BME280;9379;52.134;11.576;2023-05-10T06:32:11;100213.25;;;16.14;68.51
18500;BME280;9379;52.134;11.576;2023-05-10T06:34:38;100215.25;;;16.72;67.50
18500;BME280;9379;52.134;11.576;2023-05-10T06:37:06;100219.94;;;17.14;66.86
18500;BME280;9379;52.134;11.576;2023-05-10T06:39:32;100214.75;;;16.98;67.38
18500;BME280;9379;52.134;11.576;2023-05-10T06:41:59;100223.44;;;16.56;66.85
18500;BME280;9379;52.134;11.576;2023-05-10T06:44:28;100223.59;;;16.54;67.42
18500;BME280;9379;52.134;11.576;2023-05-10T06:46:54;100221.88;;;17.20;66.34
18500;BME280;9379;52.134;11.576;2023-05-10T06:49:21;100223.47;;;17.51;65.30
18500;BME280;9379;52.134;11.576;2023-05-10T06:51:48;100225.84;;;17.10;66.58
18500;BME280;9379;52.134;11.576;2023-05-10T06:54:16;100216.97;;;17.09;65.92
18500;BME280;9379;52.134;11.576;2023-05-10T06:56:43;100225.13;;;17.16;66.46
18500;BME280;9379;52.134;11.576;2023-05-10T06:59:09;100218.19;;;17.07;66.61
18500;BME280;9379;52.134;11.576;2023-05-10T07:01:37;100226.50;;;17.27;65.81
18500;BME280;9379;52.134;11.576;2023-05-10T07:04:04;100227.44;;;16.89;67.42
18500;BME280;9379;52.134;11.576;2023-05-10T07:06:32;100218.19;;;17.07;67.26
18500;BME280;9379;52.134;11.576;2023-05-10T07:08:59;100221.84;;;16.61;68.26
18500;BME280;9379;52.134;11.576;2023-05-10T07:11:27;100222.16;;;17.11;67.72
18500;BME280;9379;52.134;11.576;2023-05-10T07:13:54;100228.50;;;16.66;68.47
18500;BME280;9379;52.134;11.576;2023-05-10T07:16:21;100222.03;;;17.34;67.88
18500;BME280;9379;52.134;11.576;2023-05-10T07:18:48;100233.00;;;17.54;67.56
18500;BME280;9379;52.134;11.576;2023-05-10T07:21:15;100224.19;;;17.74;67.74
18500;BME280;9379;52.134;11.576;2023-05-10T07:23:42;100228.59;;;17.67;67.25
18500;BME280;9379;52.134;11.576;2023-05-10T07:26:09;100233.53;;;17.64;67.24
18500;BME280;9379;52.134;11.576;2023-05-10T07:28:37;100227.94;;;18.01;67.11
18500;BME280;9379;52.134;11.576;2023-05-10T07:31:04;100227.69;;;17.75;67.85
18500;BME280;9379;52.134;11.576;2023-05-10T07:33:31;100225.97;;;17.89;67.28
18500;BME280;9379;52.134;11.576;2023-05-10T07:35:57;100227.38;;;17.85;67.18
18500;BME280;9379;52.134;11.576;2023-05-10T07:38:24;100233.31;;;18.01;67.22
18500;BME280;9379;52.134;11.576;2023-05-10T07:40:51;100227.75;;;17.82;67.22
18500;BME280;9379;52.134;11.576;2023-05-10T07:43:18;100224.50;;;17.86;67.31
18500;BME280;9379;52.134;11.576;2023-05-10T07:45:46;100237.47;;;17.83;67.44
18500;BME280;9379;52.134;11.576;2023-05-10T07:48:12;100230.63;;;17.80;67.92
18500;BME280;9379;52.134;11.576;2023-05-10T07:50:39;100237.34;;;18.12;68.28
18500;BME280;9379;52.134;11.576;2023-05-10T07:53:06;100243.94;;;17.52;68.99
18500;BME280;9379;52.134;11.576;2023-05-10T07:55:33;100244.16;;;17.87;67.96
18500;BME280;9379;52.134;11.576;2023-05-10T07:57:59;100242.72;;;17.69;67.96
18500;BME280;9379;52.134;11.576;2023-05-10T08:00:27;100248.13;;;17.91;68.38
18500;BME280;9379;52.134;11.576;2023-05-10T08:02:55;100242.88;;;17.68;68.72
18500;BME280;9379;52.134;11.576;2023-05-10T08:05:22;100249.88;;;18.48;67.66
18500;BME280;9379;52.134;11.576;2023-05-10T08:07:49;100248.50;;;18.09;68.33
18500;BME280;9379;52.134;11.576;2023-05-10T08:10:15;100246.66;;;17.88;68.18
18500;BME280;9379;52.134;11.576;2023-05-10T08:12:42;100255.03;;;18.49;67.02
18500;BME280;9379;52.134;11.576;2023-05-10T08:15:10;100258.03;;;18.12;67.77
18500;BME280;9379;52.134;11.576;2023-05-10T08:17:37;100264.56;;;18.02;68.14
18500;BME280;9379;52.134;11.576;2023-05-10T08:20:07;100259.97;;;18.18;68.01
18500;BME280;9379;52.134;11.576;2023-05-10T08:22:34;100282.25;;;18.33;68.12
18500;BME280;9379;52.134;11.576;2023-05-10T08:25:01;100270.97;;;18.01;68.78
18500;BME280;9379;52.134;11.576;2023-05-10T08:27:27;100276.06;;;18.39;68.19
18500;BME280;9379;52.134;11.576;2023-05-10T08:29:54;100273.78;;;18.15;69.07
18500;BME280;9379;52.134;11.576;2023-05-10T08:32:21;100287.19;;;18.08;69.58
18500;BME280;9379;52.134;11.576;2023-05-10T08:34:47;100290.50;;;18.10;69.46
18500;BME280;9379;52.134;11.576;2023-05-10T08:37:15;100295.88;;;17.89;69.83
18500;BME280;9379;52.134;11.576;2023-05-10T08:39:42;100291.19;;;17.61;71.18
18500;BME280;9379;52.134;11.576;2023-05-10T08:42:11;100286.22;;;17.43;72.29
18500;BME280;9379;52.134;11.576;2023-05-10T08:44:38;100264.63;;;17.52;71.19
18500;BME280;9379;52.134;11.576;2023-05-10T08:47:06;100295.44;;;17.70;71.51
18500;BME280;9379;52.134;11.576;2023-05-10T08:49:34;100297.25;;;18.21;70.77
18500;BME280;9379;52.134;11.576;2023-05-10T08:52:02;100297.81;;;17.95;71.30
18500;BME280;9379;52.134;11.576;2023-05-10T08:54:33;100293.97;;;17.53;72.39
18500;BME280;9379;52.134;11.576;2023-05-10T08:57:00;100296.38;;;17.77;72.73
18500;BME280;9379;52.134;11.576;2023-05-10T08:59:27;100303.50;;;17.70;73.33
18500;BME280;9379;52.134;11.576;2023-05-10T09:01:55;100305.72;;;17.67;73.16
18500;BME280;9379;52.134;11.576;2023-05-10T09:04:24;100309.75;;;17.41;75.97
18500;BME280;9379;52.134;11.576;2023-05-10T09:06:51;100322.38;;;17.92;77.00
18500;BME280;9379;52.134;11.576;2023-05-10T09:09:18;100327.28;;;18.24;75.62
18500;BME280;9379;52.134;11.576;2023-05-10T09:11:47;100317.72;;;18.00;76.61
18500;BME280;9379;52.134;11.576;2023-05-10T09:14:15;100328.16;;;18.10;75.64
18500;BME280;9379;52.134;11.576;2023-05-10T09:16:42;100330.78;;;18.03;75.55
18500;BME280;9379;52.134;11.576;2023-05-10T09:19:09;100327.19;;;18.39;75.33
18500;BME280;9379;52.134;11.576;2023-05-10T09:21:37;100336.44;;;18.08;75.81
18500;BME280;9379;52.134;11.576;2023-05-10T09:24:05;100337.31;;;18.37;75.83
18500;BME280;9379;52.134;11.576;2023-05-10T09:26:32;100337.09;;;18.53;75.23
18500;BME280;9379;52.134;11.576;2023-05-10T09:29:00;100335.78;;;18.28;78.14
18500;BME280;9379;52.134;11.576;2023-05-10T09:31:44;100345.03;;;18.19;76.84
18500;BME280;9379;52.134;11.576;2023-05-10T09:34:15;100342.91;;;18.57;76.18
18500;BME280;9379;52.134;11.576;2023-05-10T09:36:54;100341.00;;;18.29;77.87
18500;BME280;9379;52.134;11.576;2023-05-10T09:39:30;100349.56;;;18.61;79.69
18500;BME280;9379;52.134;11.576;2023-05-10T09:41:57;100350.06;;;18.92;77.43
18500;BME280;9379;52.134;11.576;2023-05-10T09:44:26;100352.53;;;18.66;78.77
18500;BME280;9379;52.134;11.576;2023-05-10T09:46:53;100353.34;;;18.45;78.53
18500;BME280;9379;52.134;11.576;2023-05-10T09:49:20;100338.97;;;18.17;79.58
18500;BME280;9379;52.134;11.576;2023-05-10T09:51:47;100347.38;;;18.50;78.23
18500;BME280;9379;52.134;11.576;2023-05-10T09:54:17;100355.41;;;18.22;78.39
18500;BME280;9379;52.134;11.576;2023-05-10T09:56:44;100351.25;;;18.04;78.71
18500;BME280;9379;52.134;11.576;2023-05-10T09:59:11;100355.13;;;17.95;78.67
18500;BME280;9379;52.134;11.576;2023-05-10T10:01:40;100366.53;;;18.19;79.11
18500;BME280;9379;52.134;11.576;2023-05-10T10:04:09;100370.72;;;18.43;81.43
18500;BME280;9379;52.134;11.576;2023-05-10T10:06:36;100371.78;;;18.48;80.08
18500;BME280;9379;52.134;11.576;2023-05-10T10:09:04;100374.41;;;18.20;81.08
18500;BME280;9379;52.134;11.576;2023-05-10T10:11:31;100370.84;;;18.56;80.16
18500;BME280;9379;52.134;11.576;2023-05-10T10:13:58;100372.22;;;18.67;80.68
18500;BME280;9379;52.134;11.576;2023-05-10T10:16:26;100382.34;;;18.64;79.90
18500;BME280;9379;52.134;11.576;2023-05-10T10:18:55;100376.59;;;18.95;78.47
18500;BME280;9379;52.134;11.576;2023-05-10T10:21:22;100388.25;;;18.60;80.57
18500;BME280;9379;52.134;11.576;2023-05-10T10:23:49;100380.72;;;18.70;80.25
18500;BME280;9379;52.134;11.576;2023-05-10T10:26:17;100379.88;;;18.91;79.86
18500;BME280;9379;52.134;11.576;2023-05-10T10:28:50;100378.28;;;18.54;81.07
18500;BME280;9379;52.134;11.576;2023-05-10T10:31:26;100389.13;;;18.82;81.28
18500;BME280;9379;52.134;11.576;2023-05-10T10:34:04;100388.22;;;18.53;82.13
18500;BME280;9379;52.134;11.576;2023-05-10T10:36:32;100390.25;;;18.51;82.83
18500;BME280;9379;52.134;11.576;2023-05-10T10:39:01;100391.53;;;18.34;84.56
18500;BME280;9379;52.134;11.576;2023-05-10T10:41:33;100390.25;;;18.51;85.68
18500;BME280;9379;52.134;11.576;2023-05-10T10:44:34;100393.75;;;18.88;84.36
18500;BME280;9379;52.134;11.576;2023-05-10T10:47:04;100402.25;;;18.70;85.17
18500;BME280;9379;52.134;11.576;2023-05-10T10:49:37;100398.03;;;18.25;85.45
18500;BME280;9379;52.134;11.576;2023-05-10T10:52:22;100399.78;;;18.69;86.62
18500;BME280;9379;52.134;11.576;2023-05-10T10:54:53;100401.34;;;18.42;84.35
18500;BME280;9379;52.134;11.576;2023-05-10T10:57:23;100392.31;;;18.92;86.20
18500;BME280;9379;52.134;11.576;2023-05-10T10:59:53;100399.88;;;18.82;86.31
18500;BME280;9379;52.134;11.576;2023-05-10T11:02:45;100413.13;;;18.77;87.52
18500;BME280;9379;52.134;11.576;2023-05-10T11:05:26;100404.91;;;18.49;86.99
18500;BME280;9379;52.134;11.576;2023-05-10T11:08:02;100399.81;;;18.75;88.31
18500;BME280;9379;52.134;11.576;2023-05-10T11:10:33;100403.88;;;18.64;89.43
18500;BME280;9379;52.134;11.576;2023-05-10T11:13:00;100403.59;;;18.81;87.74
18500;BME280;9379;52.134;11.576;2023-05-10T11:15:31;100408.47;;;18.71;87.37
18500;BME280;9379;52.134;11.576;2023-05-10T11:17:57;100412.75;;;18.86;86.17
18500;BME280;9379;52.134;11.576;2023-05-10T11:20:28;100417.09;;;19.09;85.19
18500;BME280;9379;52.134;11.576;2023-05-10T11:23:10;100421.50;;;19.44;86.80
18500;BME280;9379;52.134;11.576;2023-05-10T11:25:41;100424.25;;;18.74;89.57
18500;BME280;9379;52.134;11.576;2023-05-10T11:28:08;100428.28;;;18.27;90.03
18500;BME280;9379;52.134;11.576;2023-05-10T11:30:35;100421.16;;;18.55;90.27
18500;BME280;9379;52.134;11.576;2023-05-10T11:33:03;100417.22;;;18.58;87.74
18500;BME280;9379;52.134;11.576;2023-05-10T11:35:31;100423.59;;;18.93;86.43
18500;BME280;9379;52.134;11.576;2023-05-10T11:38:05;100422.84;;;18.20;90.96
18500;BME280;9379;52.134;11.576;2023-05-10T11:40:32;100424.88;;;18.54;91.49
18500;BME280;9379;52.134;11.576;2023-05-10T11:42:59;100431.09;;;18.04;93.05
18500;BME280;9379;52.134;11.576;2023-05-10T11:45:26;100437.28;;;18.34;94.01
18500;BME280;9379;52.134;11.576;2023-05-10T11:47:53;100423.38;;;18.16;91.71
18500;BME280;9379;52.134;11.576;2023-05-10T11:50:20;100433.78;;;18.04;92.26
18500;BME280;9379;52.134;11.576;2023-05-10T11:52:51;100447.88;;;18.21;92.48
18500;BME280;9379;52.134;11.576;2023-05-10T11:55:18;100445.91;;;18.29;93.77
18500;BME280;9379;52.134;11.576;2023-05-10T11:57:45;100448.25;;;18.18;92.48
18500;BME280;9379;52.134;11.576;2023-05-10T12:00:13;100450.47;;;18.65;91.55
18500;BME280;9379;52.134;11.576;2023-05-10T12:02:40;100449.66;;;18.64;91.69
18500;BME280;9379;52.134;11.576;2023-05-10T12:05:08;100444.75;;;18.75;92.40
18500;BME280;9379;52.134;11.576;2023-05-10T12:07:35;100440.78;;;18.71;92.83
18500;BME280;9379;52.134;11.576;2023-05-10T12:10:10;100448.34;;;18.82;92.08
18500;BME280;9379;52.134;11.576;2023-05-10T12:12:40;100456.63;;;19.02;92.98
18500;BME280;9379;52.134;11.576;2023-05-10T12:15:12;100454.63;;;18.68;94.85
18500;BME280;9379;52.134;11.576;2023-05-10T12:17:39;100458.19;;;18.53;95.25
18500;BME280;9379;52.134;11.576;2023-05-10T12:20:16;100457.56;;;19.15;91.61
18500;BME280;9379;52.134;11.576;2023-05-10T12:22:45;100458.38;;;18.88;92.90
18500;BME280;9379;52.134;11.576;2023-05-10T12:25:13;100460.56;;;19.27;92.59
18500;BME280;9379;52.134;11.576;2023-05-10T12:27:40;100460.41;;;18.64;95.89
18500;BME280;9379;52.134;11.576;2023-05-10T12:30:08;100456.00;;;19.00;92.91
18500;BME280;9379;52.134;11.576;2023-05-10T12:32:38;100452.28;;;18.79;94.32
18500;BME280;9379;52.134;11.576;2023-05-10T12:35:06;100467.84;;;19.33;93.14
18500;BME280;9379;52.134;11.576;2023-05-10T12:37:34;100469.03;;;19.24;89.67
18500;BME280;9379;52.134;11.576;2023-05-10T12:40:01;100470.53;;;19.05;94.43
18500;BME280;9379;52.134;11.576;2023-05-10T12:42:29;100479.25;;;18.86;95.44
18500;BME280;9379;52.134;11.576;2023-05-10T12:44:57;100469.84;;;18.60;96.56
18500;BME280;9379;52.134;11.576;2023-05-10T12:47:23;100476.03;;;18.97;94.94
18500;BME280;9379;52.134;11.576;2023-05-10T12:49:50;100473.16;;;18.41;96.94
18500;BME280;9379;52.134;11.576;2023-05-10T12:52:17;100486.44;;;18.43;96.55
18500;BME280;9379;52.134;11.576;2023-05-10T12:54:44;100477.88;;;18.54;96.43
18500;BME280;9379;52.134;11.576;2023-05-10T12:57:10;100481.56;;;18.68;96.80